Time,TemperatureF,DewpointF,PressureIn,WindDirection,WindDirectionDegrees,WindSpeedMPH,WindSpeedGustMPH,Humidity,HourlyPrecipIn,Conditions,Clouds,dailyrainin,SoftwareType,DateUTC
2013-11-01 00:01:00,67.1,66.7,29.76,East,90,1.0,1.0,99,0.00,,,2.16,meteohub,2013-11-01 04:01:00,
2013-11-01 00:02:00,67.1,66.7,29.76,East,90,1.0,1.0,99,0.00,,,2.16,meteohub,2013-11-01 04:02:00,
2013-11-01 00:07:00,67.1,66.7,29.76,East,90,1.0,1.0,99,0.00,,,2.16,meteohub,2013-11-01 04:07:00,
2013-11-01 00:12:00,66.9,66.6,29.76,NE,45,1.0,1.0,99,0.00,,,2.16,meteohub,2013-11-01 04:12:00,
2013-11-01 00:17:00,66.7,66.4,29.76,East,90,0.0,1.0,99,0.00,,,2.16,meteohub,2013-11-01 04:17:00,
2013-11-01 00:22:00,66.7,66.4,29.76,NE,45,1.0,1.0,99,0.00,,,2.16,meteohub,2013-11-01 04:22:00,
2013-11-01 00:27:00,66.4,66.0,29.76,East,90,0.0,1.0,99,0.00,,,2.16,meteohub,2013-11-01 04:27:00,
2013-11-01 00:32:00,66.2,65.8,29.76,NE,45,0.0,1.0,99,0.00,,,2.16,meteohub,2013-11-01 04:32:00,
2013-11-01 00:37:00,66.2,65.8,29.76,East,90,0.0,1.0,99,0.00,,,2.16,meteohub,2013-11-01 04:37:00,
2013-11-01 00:42:00,65.8,65.5,29.75,East,90,0.0,1.0,99,0.00,,,2.16,meteohub,2013-11-01 04:42:00,
2013-11-01 00:47:00,65.8,65.5,29.76,East,90,0.0,1.0,99,0.00,,,2.16,meteohub,2013-11-01 04:47:00,
2013-11-01 00:52:00,65.8,65.5,29.77,East,90,0.0,0.0,99,0.00,,,2.16,meteohub,2013-11-01 04:52:00,
2013-11-01 00:57:00,65.7,65.3,29.76,East,90,0.0,0.0,99,0.00,,,2.16,meteohub,2013-11-01 04:57:00,
2013-11-01 01:02:00,65.7,65.3,29.77,East,90,0.0,0.0,99,0.00,,,2.16,meteohub,2013-11-01 05:02:00,
2013-11-01 01:07:00,65.5,65.1,29.77,East,90,0.0,0.0,99,0.00,,,0.00,meteohub,2013-11-01 05:07:00,
2013-11-01 01:12:00,65.5,65.1,29.77,East,90,0.0,0.0,99,0.00,,,0.00,meteohub,2013-11-01 05:12:00,
2013-11-01 01:17:00,65.3,64.9,29.76,East,90,0.0,0.0,99,0.00,,,0.00,meteohub,2013-11-01 05:17:00,
2013-11-01 01:23:00,65.1,64.8,29.76,East,90,0.0,0.0,99,0.00,,,0.00,meteohub,2013-11-01 05:23:00,
2013-11-01 01:28:00,64.9,64.6,29.77,East,90,0.0,0.0,99,0.00,,,0.00,meteohub,2013-11-01 05:28:00,
2013-11-01 01:33:00,64.9,64.6,29.76,East,90,0.0,0.0,99,0.00,,,0.00,meteohub,2013-11-01 05:33:00,
2013-11-01 01:38:00,64.8,64.4,29.77,East,90,0.0,0.0,99,0.00,,,0.00,meteohub,2013-11-01 05:38:00,
2013-11-01 01:43:00,64.8,64.4,29.76,East,90,0.0,0.0,99,0.00,,,0.00,meteohub,2013-11-01 05:43:00,
2013-11-01 01:45:00,64.8,64.4,29.76,East,90,0.0,0.0,99,0.00,,,0.00,meteohub,2013-11-01 05:45:00,
2013-11-01 01:50:00,64.8,64.4,29.76,East,90,0.0,0.0,99,0.00,,,0.00,meteohub,2013-11-01 05:50:00,
2013-11-01 01:55:00,64.8,64.4,29.77,East,90,0.0,0.0,99,0.00,,,0.00,meteohub,2013-11-01 05:55:00,
2013-11-01 02:00:00,64.8,64.4,29.77,East,90,0.0,0.0,99,0.00,,,0.00,meteohub,2013-11-01 06:00:00,
2013-11-01 02:05:00,64.8,64.4,29.77,East,90,0.0,0.0,99,0.00,,,0.00,meteohub,2013-11-01 06:05:00,
2013-11-01 02:10:00,64.6,64.2,29.77,East,90,0.0,0.0,99,0.00,,,0.00,meteohub,2013-11-01 06:10:00,
2013-11-01 02:15:00,64.6,64.2,29.77,East,90,0.0,0.0,99,0.00,,,0.00,meteohub,2013-11-01 06:15:00,
2013-11-01 02:20:00,64.8,64.4,29.77,East,90,0.0,0.0,99,0.00,,,0.00,meteohub,2013-11-01 06:20:00,
2013-11-01 02:25:00,64.8,64.4,29.76,East,90,0.0,0.0,99,0.00,,,0.00,meteohub,2013-11-01 06:25:00,
2013-11-01 02:30:00,64.6,64.2,29.77,East,90,0.0,0.0,99,0.00,,,0.00,meteohub,2013-11-01 06:30:00,
2013-11-01 02:35:00,64.4,64.0,29.76,East,90,0.0,0.0,99,0.00,,,0.00,meteohub,2013-11-01 06:35:00,
2013-11-01 02:40:00,64.4,64.0,29.76,East,90,0.0,0.0,99,0.00,,,0.00,meteohub,2013-11-01 06:40:00,
2013-11-01 02:45:00,64.2,63.3,29.76,East,90,0.0,0.0,97,0.00,,,0.00,meteohub,2013-11-01 06:45:00,
2013-11-01 02:50:00,64.2,63.3,29.76,East,90,0.0,0.0,97,0.00,,,0.00,meteohub,2013-11-01 06:50:00,
2013-11-01 02:55:00,64.2,63.3,29.76,East,90,0.0,0.0,97,0.00,,,0.00,meteohub,2013-11-01 06:55:00,
2013-11-01 03:00:00,64.0,63.1,29.76,East,90,0.0,0.0,97,0.00,,,0.00,meteohub,2013-11-01 07:00:00,
2013-11-01 03:05:00,64.0,63.1,29.75,East,90,0.0,0.0,97,0.00,,,0.00,meteohub,2013-11-01 07:05:00,
2013-11-01 03:10:00,63.9,63.0,29.75,East,90,0.0,0.0,97,0.00,,,0.00,meteohub,2013-11-01 07:10:00,
2013-11-01 03:15:00,63.9,63.0,29.76,East,90,0.0,0.0,97,0.00,,,0.00,meteohub,2013-11-01 07:15:00,
2013-11-01 03:20:00,63.7,62.8,29.75,East,90,0.0,0.0,97,0.00,,,0.00,meteohub,2013-11-01 07:20:00,
2013-11-01 03:25:00,63.7,62.8,29.75,East,90,0.0,0.0,97,0.00,,,0.00,meteohub,2013-11-01 07:25:00,
2013-11-01 03:30:00,63.5,62.6,29.75,East,90,0.0,1.0,97,0.00,,,0.00,meteohub,2013-11-01 07:30:00,
2013-11-01 03:35:00,63.5,62.6,29.75,East,90,0.0,1.0,97,0.00,,,0.00,meteohub,2013-11-01 07:35:00,
2013-11-01 03:40:00,63.3,62.4,29.75,East,90,0.0,0.0,97,0.00,,,0.00,meteohub,2013-11-01 07:40:00,
2013-11-01 03:45:00,63.1,62.2,29.75,East,90,0.0,0.0,97,0.00,,,0.00,meteohub,2013-11-01 07:45:00,
2013-11-01 03:50:00,62.8,61.9,29.75,East,90,0.0,0.0,97,0.00,,,0.00,meteohub,2013-11-01 07:50:00,
2013-11-01 03:55:00,62.8,61.9,29.75,East,90,0.0,0.0,97,0.00,,,0.00,meteohub,2013-11-01 07:55:00,
2013-11-01 04:00:00,62.8,61.9,29.75,East,90,0.0,0.0,97,0.00,,,0.00,meteohub,2013-11-01 08:00:00,
2013-11-01 04:05:00,62.8,61.9,29.74,East,90,0.0,0.0,97,0.00,,,0.00,meteohub,2013-11-01 08:05:00,
2013-11-01 04:10:00,61.9,61.3,29.75,East,90,0.0,0.0,98,0.00,,,0.00,meteohub,2013-11-01 08:10:00,
2013-11-01 04:15:00,61.5,61.0,29.75,East,90,0.0,0.0,98,0.00,,,0.00,meteohub,2013-11-01 08:15:00,
2013-11-01 04:20:00,61.7,61.2,29.74,East,90,0.0,0.0,98,0.00,,,0.00,meteohub,2013-11-01 08:20:00,
2013-11-01 04:25:00,61.9,61.3,29.75,East,90,0.0,0.0,98,0.00,,,0.00,meteohub,2013-11-01 08:25:00,
2013-11-01 04:30:00,61.9,61.3,29.74,East,90,0.0,0.0,98,0.00,,,0.00,meteohub,2013-11-01 08:30:00,
2013-11-01 04:35:00,61.9,61.3,29.74,East,90,0.0,0.0,98,0.00,,,0.00,meteohub,2013-11-01 08:35:00,
2013-11-01 04:40:00,61.7,61.2,29.74,East,90,0.0,0.0,98,0.00,,,0.00,meteohub,2013-11-01 08:40:00,
2013-11-01 04:45:00,61.7,61.2,29.74,East,90,0.0,0.0,98,0.00,,,0.00,meteohub,2013-11-01 08:45:00,
2013-11-01 04:50:00,61.5,61.0,29.74,East,90,0.0,0.0,98,0.00,,,0.00,meteohub,2013-11-01 08:50:00,
2013-11-01 04:55:00,61.5,61.0,29.73,East,90,0.0,0.0,98,0.00,,,0.00,meteohub,2013-11-01 08:55:00,
2013-11-01 05:00:00,61.3,60.8,29.74,East,90,0.0,0.0,98,0.00,,,0.00,meteohub,2013-11-01 09:00:00,
2013-11-01 05:05:00,61.5,61.0,29.74,East,90,0.0,0.0,98,0.00,,,0.00,meteohub,2013-11-01 09:05:00,
2013-11-01 05:10:00,61.3,60.8,29.74,East,90,0.0,0.0,98,0.00,,,0.00,meteohub,2013-11-01 09:10:00,
2013-11-01 05:15:00,61.2,60.6,29.74,East,90,0.0,0.0,98,0.00,,,0.00,meteohub,2013-11-01 09:15:00,
2013-11-01 05:20:00,61.2,60.6,29.74,East,90,0.0,0.0,98,0.00,,,0.00,meteohub,2013-11-01 09:20:00,
2013-11-01 05:25:00,61.3,60.8,29.74,East,90,0.0,0.0,98,0.00,,,0.00,meteohub,2013-11-01 09:25:00,
2013-11-01 05:30:00,61.9,61.3,29.74,East,90,0.0,0.0,98,0.00,,,0.00,meteohub,2013-11-01 09:30:00,
2013-11-01 05:35:00,61.9,61.3,29.74,East,90,0.0,0.0,98,0.00,,,0.00,meteohub,2013-11-01 09:35:00,
2013-11-01 05:40:00,61.5,61.0,29.74,East,90,0.0,0.0,98,0.00,,,0.00,meteohub,2013-11-01 09:40:00,
2013-11-01 05:45:00,61.5,61.0,29.74,East,90,0.0,0.0,98,0.00,,,0.00,meteohub,2013-11-01 09:45:00,
2013-11-01 05:50:00,61.5,61.0,29.74,East,90,0.0,0.0,98,0.00,,,0.00,meteohub,2013-11-01 09:50:00,
2013-11-01 05:55:00,61.5,61.0,29.74,East,90,0.0,0.0,98,0.00,,,0.00,meteohub,2013-11-01 09:55:00,
2013-11-01 06:00:00,61.7,61.2,29.74,East,90,0.0,0.0,98,0.00,,,0.00,meteohub,2013-11-01 10:00:00,
2013-11-01 06:05:00,61.7,61.2,29.75,East,90,0.0,0.0,98,0.00,,,0.00,meteohub,2013-11-01 10:05:00,
2013-11-01 06:10:00,62.1,61.5,29.73,East,90,0.0,0.0,98,0.00,,,0.00,meteohub,2013-11-01 10:10:00,
2013-11-01 06:15:00,61.7,61.2,29.74,East,90,0.0,0.0,98,0.00,,,0.00,meteohub,2013-11-01 10:15:00,
2013-11-01 06:20:00,62.1,61.5,29.73,East,90,0.0,0.0,98,0.00,,,0.00,meteohub,2013-11-01 10:20:00,
2013-11-01 06:25:00,62.1,61.5,29.74,East,90,0.0,0.0,98,0.00,,,0.00,meteohub,2013-11-01 10:25:00,
2013-11-01 06:30:00,61.9,61.3,29.74,East,90,0.0,0.0,98,0.00,,,0.00,meteohub,2013-11-01 10:30:00,
2013-11-01 06:35:00,62.1,61.5,29.73,East,90,0.0,0.0,98,0.00,,,0.00,meteohub,2013-11-01 10:35:00,
2013-11-01 06:40:00,62.2,61.7,29.73,East,90,0.0,0.0,98,0.00,,,0.00,meteohub,2013-11-01 10:40:00,
2013-11-01 06:45:00,62.4,61.9,29.74,East,90,0.0,0.0,98,0.00,,,0.00,meteohub,2013-11-01 10:45:00,
2013-11-01 06:50:00,62.4,61.9,29.74,East,90,0.0,0.0,98,0.00,,,0.00,meteohub,2013-11-01 10:50:00,
2013-11-01 06:55:00,62.2,61.7,29.74,East,90,0.0,0.0,98,0.00,,,0.00,meteohub,2013-11-01 10:55:00,
2013-11-01 07:00:00,61.9,61.3,29.74,East,90,0.0,0.0,98,0.00,,,0.00,meteohub,2013-11-01 11:00:00,
2013-11-01 07:05:00,61.9,61.3,29.74,East,90,0.0,0.0,98,0.00,,,0.00,meteohub,2013-11-01 11:05:00,
2013-11-01 07:10:00,61.7,61.2,29.75,East,90,0.0,0.0,98,0.00,,,0.00,meteohub,2013-11-01 11:10:00,
2013-11-01 07:16:00,61.9,61.3,29.75,East,90,0.0,0.0,98,0.00,,,0.00,meteohub,2013-11-01 11:16:00,
2013-11-01 07:20:00,61.9,61.3,29.75,East,90,0.0,0.0,98,0.00,,,0.00,meteohub,2013-11-01 11:20:00,
2013-11-01 07:26:00,61.3,60.8,29.75,East,90,0.0,0.0,98,0.00,,,0.00,meteohub,2013-11-01 11:26:00,
2013-11-01 07:31:00,61.3,60.8,29.74,East,90,0.0,0.0,98,0.00,,,0.00,meteohub,2013-11-01 11:31:00,
2013-11-01 07:36:00,61.2,60.6,29.74,East,90,0.0,0.0,98,0.00,,,0.00,meteohub,2013-11-01 11:36:00,
2013-11-01 07:41:00,60.8,60.3,29.75,East,90,0.0,0.0,98,0.00,,,0.00,meteohub,2013-11-01 11:41:00,
2013-11-01 07:46:00,60.4,60.1,29.75,East,90,0.0,0.0,99,0.00,,,0.00,meteohub,2013-11-01 11:46:00,
2013-11-01 07:51:00,60.1,59.7,29.75,East,90,0.0,0.0,99,0.00,,,0.00,meteohub,2013-11-01 11:51:00,
2013-11-01 07:56:00,60.1,59.7,29.75,East,90,0.0,0.0,99,0.00,,,0.00,meteohub,2013-11-01 11:56:00,
2013-11-01 08:01:00,59.9,59.5,29.75,East,90,0.0,0.0,99,0.00,,,0.00,meteohub,2013-11-01 12:01:00,
2013-11-01 08:06:00,59.9,59.5,29.75,East,90,0.0,0.0,99,0.00,,,0.00,meteohub,2013-11-01 12:06:00,
2013-11-01 08:11:00,59.7,59.4,29.75,East,90,0.0,0.0,99,0.00,,,0.00,meteohub,2013-11-01 12:11:00,
2013-11-01 08:16:00,59.9,59.5,29.76,East,90,0.0,0.0,99,0.00,,,0.00,meteohub,2013-11-01 12:16:00,
2013-11-01 08:21:00,59.9,59.5,29.76,East,90,0.0,0.0,99,0.00,,,0.00,meteohub,2013-11-01 12:21:00,
2013-11-01 08:26:00,59.9,59.5,29.77,East,90,0.0,0.0,99,0.00,,,0.00,meteohub,2013-11-01 12:26:00,
2013-11-01 08:31:00,59.7,59.4,29.76,East,90,0.0,0.0,99,0.00,,,0.00,meteohub,2013-11-01 12:31:00,
2013-11-01 08:36:00,59.7,59.4,29.77,East,90,0.0,0.0,99,0.00,,,0.00,meteohub,2013-11-01 12:36:00,
2013-11-01 08:41:00,59.5,59.2,29.77,East,90,0.0,0.0,99,0.00,,,0.00,meteohub,2013-11-01 12:41:00,
2013-11-01 08:46:00,59.5,59.2,29.77,East,90,1.0,1.0,99,0.00,,,0.00,meteohub,2013-11-01 12:46:00,
2013-11-01 08:51:00,59.5,59.2,29.77,East,90,0.0,1.0,99,0.01,,,0.01,meteohub,2013-11-01 12:51:00,
2013-11-01 08:56:00,59.9,59.5,29.78,East,90,0.0,1.0,99,0.01,,,0.01,meteohub,2013-11-01 12:56:00,
2013-11-01 09:01:00,59.9,59.5,29.78,East,90,1.0,1.0,99,0.01,,,0.01,meteohub,2013-11-01 13:01:00,
2013-11-01 09:06:00,59.9,59.5,29.78,East,90,1.0,2.0,99,0.01,,,0.01,meteohub,2013-11-01 13:06:00,
2013-11-01 09:11:00,60.1,59.7,29.78,East,90,0.0,2.0,99,0.01,,,0.01,meteohub,2013-11-01 13:11:00,
2013-11-01 09:16:00,60.4,60.1,29.78,East,90,1.0,1.0,99,0.01,,,0.01,meteohub,2013-11-01 13:16:00,
2013-11-01 09:21:00,61.2,60.6,29.78,East,90,1.0,1.0,98,0.01,,,0.01,meteohub,2013-11-01 13:21:00,
2013-11-01 09:26:00,61.9,61.3,29.78,East,90,0.0,1.0,98,0.01,,,0.01,meteohub,2013-11-01 13:26:00,
2013-11-01 09:31:00,62.6,61.7,29.78,East,90,0.0,1.0,97,0.01,,,0.01,meteohub,2013-11-01 13:31:00,
2013-11-01 09:36:00,62.8,61.9,29.78,East,90,0.0,1.0,97,0.01,,,0.01,meteohub,2013-11-01 13:36:00,
2013-11-01 09:41:00,62.8,61.9,29.78,East,90,0.0,1.0,97,0.01,,,0.01,meteohub,2013-11-01 13:41:00,
2013-11-01 09:46:00,64.2,63.3,29.79,East,90,0.0,0.0,97,0.00,,,0.01,meteohub,2013-11-01 13:46:00,
2013-11-01 09:51:00,66.0,65.7,29.79,East,90,0.0,0.0,99,0.00,,,0.01,meteohub,2013-11-01 13:51:00,
2013-11-01 09:56:00,67.6,67.3,29.79,East,90,0.0,0.0,99,0.00,,,0.01,meteohub,2013-11-01 13:56:00,
2013-11-01 10:01:00,68.2,67.8,29.79,East,90,0.0,0.0,99,0.00,,,0.01,meteohub,2013-11-01 14:01:00,
2013-11-01 10:06:00,68.2,67.8,29.79,East,90,0.0,0.0,99,0.00,,,0.01,meteohub,2013-11-01 14:06:00,
2013-11-01 10:11:00,70.7,70.2,29.80,East,90,0.0,0.0,98,0.00,,,0.01,meteohub,2013-11-01 14:11:00,
2013-11-01 10:16:00,71.2,70.7,29.80,East,90,1.0,0.0,98,0.00,,,0.01,meteohub,2013-11-01 14:16:00,
2013-11-01 10:21:00,71.4,70.9,29.80,East,90,1.0,1.0,98,0.00,,,0.01,meteohub,2013-11-01 14:21:00,
2013-11-01 10:26:00,71.1,70.5,29.81,East,90,0.0,1.0,98,0.00,,,0.01,meteohub,2013-11-01 14:26:00,
2013-11-01 10:31:00,71.1,70.5,29.81,East,90,0.0,1.0,98,0.00,,,0.01,meteohub,2013-11-01 14:31:00,
2013-11-01 10:36:00,71.8,70.9,29.81,East,90,0.0,1.0,97,0.00,,,0.01,meteohub,2013-11-01 14:36:00,
2013-11-01 10:41:00,73.0,72.1,29.81,East,90,0.0,1.0,97,0.00,,,0.01,meteohub,2013-11-01 14:41:00,
2013-11-01 10:46:00,74.1,73.8,29.81,SE,135,0.0,1.0,99,0.00,,,0.01,meteohub,2013-11-01 14:46:00,
2013-11-01 10:51:00,74.5,74.1,29.81,East,90,0.0,1.0,99,0.00,,,0.01,meteohub,2013-11-01 14:51:00,
2013-11-01 10:56:00,74.3,73.9,29.80,East,90,1.0,1.0,99,0.00,,,0.01,meteohub,2013-11-01 14:56:00,
2013-11-01 11:01:00,75.0,71.6,29.81,SE,135,6.0,6.0,89,0.00,,,0.01,meteohub,2013-11-01 15:01:00,
2013-11-01 11:06:00,75.9,67.5,29.81,SE,135,2.0,6.0,75,0.00,,,0.01,meteohub,2013-11-01 15:06:00,
2013-11-01 11:12:00,77.2,66.2,29.80,SE,135,0.0,6.0,69,0.00,,,0.01,meteohub,2013-11-01 15:12:00,
2013-11-01 11:17:00,77.4,64.2,29.80,SE,135,5.0,6.0,64,0.00,,,0.01,meteohub,2013-11-01 15:17:00,
2013-11-01 11:22:00,77.7,63.7,29.80,East,90,1.0,8.0,62,0.00,,,0.01,meteohub,2013-11-01 15:22:00,
2013-11-01 11:27:00,78.8,64.2,29.81,SE,135,1.0,8.0,61,0.00,,,0.01,meteohub,2013-11-01 15:27:00,
2013-11-01 11:32:00,79.9,64.8,29.81,South,180,1.0,8.0,60,0.00,,,0.01,meteohub,2013-11-01 15:32:00,
2013-11-01 11:37:00,80.2,64.6,29.81,East,90,0.0,1.0,59,0.00,,,0.01,meteohub,2013-11-01 15:37:00,
2013-11-01 11:42:00,80.4,66.2,29.82,SE,135,0.0,1.0,62,0.00,,,0.01,meteohub,2013-11-01 15:42:00,
2013-11-01 11:47:00,80.6,64.9,29.81,SE,135,1.0,1.0,59,0.00,,,0.01,meteohub,2013-11-01 15:47:00,
2013-11-01 11:52:00,81.3,66.0,29.81,SE,135,1.0,2.0,60,0.00,,,0.01,meteohub,2013-11-01 15:52:00,
2013-11-01 11:57:00,82.0,65.8,29.82,South,180,1.0,2.0,58,0.00,,,0.01,meteohub,2013-11-01 15:57:00,
2013-11-01 12:02:00,81.3,64.6,29.81,SE,135,1.0,2.0,57,0.00,,,0.01,meteohub,2013-11-01 16:02:00,
2013-11-01 12:07:00,81.3,64.6,29.81,SE,135,1.0,1.0,57,0.00,,,0.01,meteohub,2013-11-01 16:07:00,
2013-11-01 12:12:00,82.0,65.8,29.81,East,90,1.0,1.0,58,0.00,,,0.01,meteohub,2013-11-01 16:12:00,
2013-11-01 12:17:00,81.3,65.7,29.81,South,180,4.0,4.0,59,0.00,,,0.01,meteohub,2013-11-01 16:17:00,
2013-11-01 12:21:00,81.0,64.8,29.81,SE,135,1.0,4.0,58,0.00,,,0.01,meteohub,2013-11-01 16:21:00,
2013-11-01 12:27:00,80.6,64.4,29.81,East,90,1.0,4.0,58,0.00,,,0.01,meteohub,2013-11-01 16:27:00,
2013-11-01 12:32:00,81.3,65.1,29.81,East,90,2.0,4.0,58,0.00,,,0.01,meteohub,2013-11-01 16:32:00,
2013-11-01 12:37:00,82.4,61.9,29.81,SE,135,5.0,5.0,50,0.00,,,0.01,meteohub,2013-11-01 16:37:00,
2013-11-01 12:42:00,82.6,62.6,29.81,SW,225,1.0,5.0,51,0.00,,,0.01,meteohub,2013-11-01 16:42:00,
2013-11-01 12:47:00,84.2,63.0,29.81,East,90,2.0,5.0,49,0.00,,,0.01,meteohub,2013-11-01 16:47:00,
2013-11-01 12:51:00,84.4,61.9,29.81,South,180,2.0,5.0,47,0.00,,,0.01,meteohub,2013-11-01 16:51:00,
2013-11-01 12:57:00,84.6,62.8,29.81,South,180,0.0,2.0,48,0.00,,,0.01,meteohub,2013-11-01 16:57:00,
2013-11-01 13:02:00,84.6,62.1,29.80,South,180,1.0,2.0,47,0.00,,,0.01,meteohub,2013-11-01 17:02:00,
2013-11-01 13:07:00,85.1,63.1,29.80,SE,135,1.0,4.0,48,0.00,,,0.01,meteohub,2013-11-01 17:07:00,
2013-11-01 13:12:00,84.6,63.3,29.80,SE,135,0.0,5.0,49,0.00,,,0.01,meteohub,2013-11-01 17:12:00,
2013-11-01 13:17:00,84.7,63.0,29.80,East,90,1.0,5.0,48,0.00,,,0.01,meteohub,2013-11-01 17:17:00,
2013-11-01 13:22:00,84.9,63.0,29.80,SSW,203,4.0,5.0,48,0.00,,,0.01,meteohub,2013-11-01 17:22:00,
2013-11-01 13:27:00,85.6,63.7,29.79,SW,225,1.0,4.0,48,0.00,,,0.01,meteohub,2013-11-01 17:27:00,
2013-11-01 13:32:00,86.4,62.4,29.79,WNW,293,2.0,4.0,45,0.00,,,0.01,meteohub,2013-11-01 17:32:00,
2013-11-01 13:37:00,86.5,63.3,29.79,East,90,0.0,4.0,46,0.00,,,0.01,meteohub,2013-11-01 17:37:00,
2013-11-01 13:42:00,86.5,63.9,29.78,East,90,4.0,4.0,47,0.00,,,0.01,meteohub,2013-11-01 17:42:00,
2013-11-01 13:47:00,86.0,64.0,29.78,SE,135,4.0,7.0,48,0.00,,,0.01,meteohub,2013-11-01 17:47:00,
2013-11-01 13:52:00,85.5,63.5,29.78,South,180,2.0,7.0,48,0.00,,,0.01,meteohub,2013-11-01 17:52:00,
2013-11-01 13:57:00,86.4,63.1,29.78,SE,135,1.0,7.0,46,0.00,,,0.01,meteohub,2013-11-01 17:57:00,
2013-11-01 14:02:00,86.9,64.8,29.77,SE,135,2.0,4.0,48,0.00,,,0.01,meteohub,2013-11-01 18:02:00,
2013-11-01 14:07:00,86.4,61.9,29.77,NE,45,2.0,4.0,44,0.00,,,0.01,meteohub,2013-11-01 18:07:00,
2013-11-01 14:12:00,86.5,62.6,29.77,SE,135,1.0,4.0,45,0.00,,,0.01,meteohub,2013-11-01 18:12:00,
2013-11-01 14:17:00,87.4,63.5,29.76,SE,135,1.0,4.0,45,0.00,,,0.01,meteohub,2013-11-01 18:17:00,
2013-11-01 14:22:00,88.0,64.0,29.77,South,180,4.0,4.0,45,0.00,,,0.01,meteohub,2013-11-01 18:22:00,
2013-11-01 14:27:00,88.3,64.2,29.77,South,180,2.0,4.0,45,0.00,,,0.01,meteohub,2013-11-01 18:27:00,
2013-11-01 14:32:00,88.7,64.0,29.76,East,90,1.0,4.0,44,0.00,,,0.01,meteohub,2013-11-01 18:32:00,
2013-11-01 14:37:00,88.3,63.0,29.76,SE,135,2.0,4.0,43,0.00,,,0.01,meteohub,2013-11-01 18:37:00,
2013-11-01 14:42:00,88.7,64.0,29.75,NE,45,1.0,2.0,44,0.00,,,0.01,meteohub,2013-11-01 18:42:00,
2013-11-01 14:47:00,88.9,63.5,29.75,SW,225,4.0,4.0,43,0.00,,,0.01,meteohub,2013-11-01 18:47:00,
2013-11-01 14:52:00,88.3,64.2,29.75,South,180,0.0,8.0,45,0.00,,,0.01,meteohub,2013-11-01 18:52:00,
2013-11-01 14:57:00,89.8,64.2,29.75,East,90,2.0,8.0,43,0.00,,,0.01,meteohub,2013-11-01 18:57:00,
2013-11-01 15:02:00,90.1,63.9,29.75,SE,135,1.0,8.0,42,0.00,,,0.01,meteohub,2013-11-01 19:02:00,
2013-11-01 15:07:00,89.8,63.7,29.75,East,90,2.0,4.0,42,0.00,,,0.01,meteohub,2013-11-01 19:07:00,
2013-11-01 15:12:00,89.6,62.8,29.74,SSW,203,1.0,4.0,41,0.00,,,0.01,meteohub,2013-11-01 19:12:00,
2013-11-01 15:17:00,89.8,63.7,29.75,North,0,2.0,4.0,42,0.00,,,0.01,meteohub,2013-11-01 19:17:00,
2013-11-01 15:22:00,89.6,63.5,29.74,South,180,3.0,4.0,42,0.00,,,0.01,meteohub,2013-11-01 19:22:00,
2013-11-01 15:27:00,89.2,64.4,29.74,South,180,0.0,3.0,44,0.00,,,0.01,meteohub,2013-11-01 19:27:00,
2013-11-01 15:32:00,89.4,64.6,29.74,SW,225,2.0,4.0,44,0.00,,,0.01,meteohub,2013-11-01 19:32:00,
2013-11-01 15:36:00,88.3,64.2,29.73,WSW,248,1.0,5.0,45,0.00,,,0.01,meteohub,2013-11-01 19:36:00,
2013-11-01 15:41:00,87.6,64.9,29.73,SW,225,1.0,5.0,47,0.00,,,0.01,meteohub,2013-11-01 19:41:00,
2013-11-01 15:47:00,87.6,65.5,29.73,South,180,3.0,5.0,48,0.00,,,0.01,meteohub,2013-11-01 19:47:00,
2013-11-01 15:51:00,87.4,64.0,29.73,South,180,3.0,4.0,46,0.00,,,0.01,meteohub,2013-11-01 19:51:00,
2013-11-01 15:56:00,86.9,64.8,29.73,SW,225,2.0,4.0,48,0.00,,,0.01,meteohub,2013-11-01 19:56:00,
2013-11-01 16:01:00,86.4,64.9,29.73,East,90,4.0,4.0,49,0.00,,,0.01,meteohub,2013-11-01 20:01:00,
2013-11-01 16:06:00,85.5,65.3,29.73,SE,135,5.0,5.0,51,0.00,,,0.01,meteohub,2013-11-01 20:06:00,
2013-11-01 16:12:00,84.9,65.3,29.73,NW,315,3.0,5.0,52,0.00,,,0.01,meteohub,2013-11-01 20:12:00,
2013-11-01 16:17:00,85.6,66.0,29.73,SW,225,1.0,5.0,52,0.00,,,0.01,meteohub,2013-11-01 20:17:00,
2013-11-01 16:22:00,85.6,66.0,29.73,SW,225,1.0,5.0,52,0.00,,,0.01,meteohub,2013-11-01 20:22:00,
2013-11-01 16:27:00,86.4,66.0,29.73,South,180,2.0,4.0,51,0.00,,,0.01,meteohub,2013-11-01 20:27:00,
2013-11-01 16:32:00,85.6,64.9,29.72,SW,225,3.0,7.0,50,0.00,,,0.01,meteohub,2013-11-01 20:32:00,
2013-11-01 16:37:00,85.1,64.9,29.72,South,180,8.0,8.0,51,0.00,,,0.01,meteohub,2013-11-01 20:37:00,
2013-11-01 16:42:00,84.4,64.8,29.72,NW,315,6.0,8.0,52,0.00,,,0.01,meteohub,2013-11-01 20:42:00,
2013-11-01 16:47:00,84.0,65.7,29.72,West,270,2.0,8.0,54,0.00,,,0.01,meteohub,2013-11-01 20:47:00,
2013-11-01 16:52:00,84.2,65.3,29.72,South,180,6.0,8.0,53,0.00,,,0.01,meteohub,2013-11-01 20:52:00,
2013-11-01 16:57:00,83.5,65.7,29.72,South,180,7.0,7.0,55,0.00,,,0.01,meteohub,2013-11-01 20:57:00,
2013-11-01 17:02:00,83.3,66.6,29.71,SE,135,3.0,7.0,57,0.00,,,0.01,meteohub,2013-11-01 21:02:00,
2013-11-01 17:07:00,85.1,66.0,29.72,South,180,1.0,7.0,53,0.00,,,0.01,meteohub,2013-11-01 21:07:00,
2013-11-01 17:12:00,84.6,66.0,29.71,South,180,2.0,7.0,54,0.00,,,0.01,meteohub,2013-11-01 21:12:00,
2013-11-01 17:17:00,84.6,66.0,29.72,SW,225,1.0,3.0,54,0.00,,,0.01,meteohub,2013-11-01 21:17:00,
2013-11-01 17:22:00,84.7,66.7,29.72,NW,315,1.0,3.0,55,0.00,,,0.01,meteohub,2013-11-01 21:22:00,
2013-11-01 17:27:00,84.4,66.9,29.71,South,180,0.0,3.0,56,0.00,,,0.01,meteohub,2013-11-01 21:27:00,
2013-11-01 17:32:00,84.6,67.1,29.72,North,0,2.0,3.0,56,0.00,,,0.01,meteohub,2013-11-01 21:32:00,
2013-11-01 17:37:00,83.8,68.0,29.72,SE,135,1.0,3.0,59,0.00,,,0.01,meteohub,2013-11-01 21:37:00,
2013-11-01 17:42:00,83.1,68.7,29.72,SE,135,1.0,4.0,62,0.00,,,0.01,meteohub,2013-11-01 21:42:00,
2013-11-01 17:47:00,82.9,68.5,29.72,SE,135,0.0,4.0,62,0.00,,,0.01,meteohub,2013-11-01 21:47:00,
2013-11-01 17:52:00,82.6,68.7,29.72,West,270,2.0,4.0,63,0.00,,,0.01,meteohub,2013-11-01 21:52:00,
2013-11-01 17:57:00,83.5,69.1,29.72,SE,135,2.0,2.0,62,0.00,,,0.01,meteohub,2013-11-01 21:57:00,
2013-11-01 18:02:00,83.7,69.3,29.72,SE,135,2.0,4.0,62,0.00,,,0.01,meteohub,2013-11-01 22:02:00,
2013-11-01 18:07:00,83.7,69.3,29.71,SE,135,2.0,4.0,62,0.00,,,0.01,meteohub,2013-11-01 22:07:00,
2013-11-01 18:12:00,83.7,69.3,29.71,SW,225,2.0,4.0,62,0.00,,,0.01,meteohub,2013-11-01 22:12:00,
2013-11-01 18:17:00,83.1,69.3,29.71,SE,135,0.0,2.0,63,0.00,,,0.01,meteohub,2013-11-01 22:17:00,
2013-11-01 18:22:00,82.6,68.7,29.71,SW,225,3.0,5.0,63,0.00,,,0.01,meteohub,2013-11-01 22:22:00,
2013-11-01 18:27:00,82.2,68.9,29.71,SE,135,1.0,5.0,64,0.00,,,0.01,meteohub,2013-11-01 22:27:00,
2013-11-01 18:32:00,82.0,68.7,29.72,NW,315,1.0,4.0,64,0.00,,,0.01,meteohub,2013-11-01 22:32:00,
2013-11-01 18:37:00,81.1,68.2,29.71,SE,135,1.0,3.0,65,0.00,,,0.01,meteohub,2013-11-01 22:37:00,
2013-11-01 18:42:00,80.8,68.7,29.72,SSW,203,0.0,2.0,67,0.00,,,0.01,meteohub,2013-11-01 22:42:00,
2013-11-01 18:47:00,80.1,68.9,29.71,SW,225,1.0,2.0,69,0.00,,,0.01,meteohub,2013-11-01 22:47:00,
2013-11-01 18:52:00,79.3,68.4,29.70,SW,225,0.0,2.0,69,0.00,,,0.01,meteohub,2013-11-01 22:52:00,
2013-11-01 18:57:00,78.8,68.2,29.71,West,270,1.0,2.0,70,0.00,,,0.01,meteohub,2013-11-01 22:57:00,
2013-11-01 19:02:00,78.3,68.0,29.71,South,180,2.0,2.0,71,0.00,,,0.01,meteohub,2013-11-01 23:02:00,
2013-11-01 19:07:00,77.9,68.2,29.71,South,180,0.0,2.0,72,0.00,,,0.01,meteohub,2013-11-01 23:07:00,
2013-11-01 19:12:00,77.7,68.4,29.71,South,180,0.0,2.0,73,0.00,,,0.01,meteohub,2013-11-01 23:12:00,
2013-11-01 19:16:00,77.2,68.2,29.71,SW,225,0.0,2.0,74,0.00,,,0.01,meteohub,2013-11-01 23:16:00,
2013-11-01 19:22:00,77.0,68.5,29.71,South,180,0.0,0.0,75,0.00,,,0.01,meteohub,2013-11-01 23:22:00,
2013-11-01 19:27:00,76.5,68.7,29.71,South,180,0.0,0.0,77,0.00,,,0.01,meteohub,2013-11-01 23:27:00,
2013-11-01 19:32:00,76.1,68.7,29.72,South,180,0.0,1.0,78,0.00,,,0.01,meteohub,2013-11-01 23:32:00,
2013-11-01 19:37:00,75.6,68.5,29.72,South,180,0.0,1.0,79,0.00,,,0.01,meteohub,2013-11-01 23:37:00,
2013-11-01 19:42:00,74.8,68.5,29.72,South,180,0.0,1.0,81,0.00,,,0.01,meteohub,2013-11-01 23:42:00,
2013-11-01 19:47:00,74.5,68.5,29.73,South,180,0.0,0.0,82,0.00,,,0.01,meteohub,2013-11-01 23:47:00,
2013-11-01 19:52:00,74.1,68.5,29.73,South,180,0.0,0.0,83,0.00,,,0.01,meteohub,2013-11-01 23:52:00,
2013-11-01 19:57:00,73.8,68.9,29.73,South,180,0.0,0.0,85,0.00,,,0.01,meteohub,2013-11-01 23:57:00,
2013-11-01 20:02:00,73.4,68.5,29.73,South,180,0.0,0.0,85,0.00,,,0.01,meteohub,2013-11-02 00:02:00,
2013-11-01 20:07:00,73.2,69.4,29.73,South,180,0.0,0.0,88,0.00,,,0.01,meteohub,2013-11-02 00:07:00,
2013-11-01 20:12:00,73.0,69.6,29.73,South,180,0.0,0.0,89,0.00,,,0.01,meteohub,2013-11-02 00:12:00,
2013-11-01 20:17:00,73.4,70.9,29.73,SW,225,1.0,1.0,92,0.00,,,0.01,meteohub,2013-11-02 00:17:00,
2013-11-01 20:22:00,73.8,71.6,29.73,SW,225,0.0,1.0,93,0.00,,,0.01,meteohub,2013-11-02 00:22:00,
2013-11-01 20:27:00,73.8,71.6,29.75,South,180,0.0,2.0,93,0.00,,,0.01,meteohub,2013-11-02 00:27:00,
2013-11-01 20:32:00,73.6,71.1,29.75,South,180,0.0,2.0,92,0.00,,,0.01,meteohub,2013-11-02 00:32:00,
2013-11-01 20:37:00,73.4,71.2,29.75,SE,135,0.0,1.0,93,0.00,,,0.01,meteohub,2013-11-02 00:37:00,
2013-11-01 20:42:00,73.0,70.5,29.75,SE,135,0.0,0.0,92,0.00,,,0.01,meteohub,2013-11-02 00:42:00,
2013-11-01 20:47:00,72.9,70.7,29.75,SE,135,0.0,0.0,93,0.00,,,0.01,meteohub,2013-11-02 00:47:00,
2013-11-01 20:52:00,72.7,70.5,29.75,SE,135,0.0,0.0,93,0.00,,,0.01,meteohub,2013-11-02 00:52:00,
2013-11-01 20:57:00,72.3,70.2,29.75,SE,135,0.0,0.0,93,0.00,,,0.01,meteohub,2013-11-02 00:57:00,
2013-11-01 21:02:00,72.0,70.2,29.75,SSE,158,0.0,0.0,94,0.00,,,0.01,meteohub,2013-11-02 01:02:00,
2013-11-01 21:07:00,72.5,71.2,29.76,South,180,0.0,0.0,96,0.00,,,0.01,meteohub,2013-11-02 01:07:00,
2013-11-01 21:12:00,72.7,71.8,29.76,South,180,0.0,0.0,97,0.00,,,0.01,meteohub,2013-11-02 01:12:00,
2013-11-01 21:17:00,72.7,71.8,29.76,South,180,0.0,0.0,97,0.00,,,0.01,meteohub,2013-11-02 01:17:00,
2013-11-01 21:22:00,72.1,71.2,29.76,South,180,0.0,0.0,97,0.00,,,0.01,meteohub,2013-11-02 01:22:00,
2013-11-01 21:27:00,71.8,70.9,29.77,South,180,0.0,0.0,97,0.00,,,0.01,meteohub,2013-11-02 01:27:00,
2013-11-01 21:32:00,71.4,70.9,29.77,South,180,0.0,0.0,98,0.00,,,0.01,meteohub,2013-11-02 01:32:00,
2013-11-01 21:37:00,71.1,70.5,29.77,South,180,0.0,0.0,98,0.00,,,0.01,meteohub,2013-11-02 01:37:00,
2013-11-01 21:42:00,71.1,70.5,29.77,South,180,0.0,0.0,98,0.00,,,0.01,meteohub,2013-11-02 01:42:00,
2013-11-01 21:47:00,70.9,70.3,29.77,South,180,0.0,0.0,98,0.00,,,0.01,meteohub,2013-11-02 01:47:00,
2013-11-01 21:52:00,70.9,70.3,29.78,South,180,0.0,0.0,98,0.00,,,0.01,meteohub,2013-11-02 01:52:00,
2013-11-01 21:57:00,70.7,70.2,29.78,South,180,0.0,0.0,98,0.00,,,0.01,meteohub,2013-11-02 01:57:00,
2013-11-01 22:02:00,70.5,70.0,29.78,South,180,0.0,0.0,98,0.00,,,0.01,meteohub,2013-11-02 02:02:00,
2013-11-01 22:07:00,70.5,70.0,29.79,South,180,0.0,0.0,98,0.00,,,0.01,meteohub,2013-11-02 02:07:00,
2013-11-01 22:12:00,70.3,69.8,29.78,South,180,0.0,0.0,98,0.00,,,0.01,meteohub,2013-11-02 02:12:00,
2013-11-01 22:17:00,70.2,69.6,29.79,South,180,0.0,0.0,98,0.00,,,0.01,meteohub,2013-11-02 02:17:00,
2013-11-01 22:22:00,70.2,69.6,29.79,South,180,0.0,0.0,98,0.00,,,0.01,meteohub,2013-11-02 02:22:00,
2013-11-01 22:27:00,69.8,69.3,29.80,South,180,0.0,0.0,98,0.00,,,0.01,meteohub,2013-11-02 02:27:00,
2013-11-01 22:32:00,69.6,69.3,29.80,South,180,0.0,0.0,99,0.00,,,0.01,meteohub,2013-11-02 02:32:00,
2013-11-01 22:37:00,69.6,69.3,29.80,South,180,0.0,0.0,99,0.00,,,0.01,meteohub,2013-11-02 02:37:00,
2013-11-01 22:42:00,69.6,69.3,29.80,South,180,0.0,0.0,99,0.00,,,0.01,meteohub,2013-11-02 02:42:00,
2013-11-01 22:47:00,69.4,69.1,29.80,South,180,0.0,0.0,99,0.00,,,0.01,meteohub,2013-11-02 02:47:00,
2013-11-01 22:52:00,69.1,68.7,29.80,South,180,0.0,0.0,99,0.00,,,0.01,meteohub,2013-11-02 02:52:00,
2013-11-01 22:57:00,69.1,68.7,29.80,South,180,0.0,0.0,99,0.00,,,0.01,meteohub,2013-11-02 02:57:00,
2013-11-01 23:02:00,69.1,68.7,29.80,South,180,0.0,0.0,99,0.00,,,0.01,meteohub,2013-11-02 03:02:00,
2013-11-01 23:07:00,68.7,68.4,29.80,South,180,0.0,0.0,99,0.00,,,0.01,meteohub,2013-11-02 03:07:00,
2013-11-01 23:12:00,68.5,68.2,29.81,South,180,0.0,0.0,99,0.00,,,0.01,meteohub,2013-11-02 03:12:00,
2013-11-01 23:17:00,68.5,68.2,29.81,South,180,0.0,0.0,99,0.00,,,0.01,meteohub,2013-11-02 03:17:00,
2013-11-01 23:22:00,68.5,68.2,29.81,South,180,0.0,0.0,99,0.00,,,0.01,meteohub,2013-11-02 03:22:00,
2013-11-01 23:28:00,68.9,68.5,29.81,North,0,1.0,0.0,99,0.00,,,0.01,meteohub,2013-11-02 03:28:00,
2013-11-01 23:33:00,69.4,69.1,29.81,North,0,0.0,1.0,99,0.00,,,0.01,meteohub,2013-11-02 03:33:00,
2013-11-01 23:38:00,69.6,69.3,29.81,North,0,1.0,1.0,99,0.00,,,0.01,meteohub,2013-11-02 03:38:00,
2013-11-01 23:43:00,70.0,69.4,29.82,NW,315,0.0,1.0,98,0.00,,,0.01,meteohub,2013-11-02 03:43:00,
2013-11-01 23:48:00,70.3,69.8,29.83,North,0,1.0,1.0,98,0.00,,,0.01,meteohub,2013-11-02 03:48:00,
2013-11-01 23:53:00,70.3,69.8,29.83,West,270,1.0,2.0,98,0.00,,,0.01,meteohub,2013-11-02 03:53:00,
2013-11-01 23:58:00,70.5,70.0,29.83,West,270,1.0,2.0,98,0.00,,,0.01,meteohub,2013-11-02 03:58:00,